sensor_id;sensor_type;location;lat;lon;timestamp;P1;durP1;ratioP1;P2;durP2;ratioP2
56477;SDS011;42382;53.210;5.772;2024-02-26T00:00:34;11.80;;;6.78;;
56477;SDS011;42382;53.210;5.772;2024-02-26T00:03:00;12.52;;;7.00;;
56477;SDS011;42382;53.210;5.772;2024-02-26T00:05:26;13.75;;;7.05;;
56477;SDS011;42382;53.210;5.772;2024-02-26T00:07:52;8.60;;;6.43;;
56477;SDS011;42382;53.210;5.772;2024-02-26T00:10:17;10.40;;;6.43;;
56477;SDS011;42382;53.210;5.772;2024-02-26T00:12:43;10.45;;;6.30;;
56477;SDS011;42382;53.210;5.772;2024-02-26T00:15:09;13.68;;;7.15;;
56477;SDS011;42382;53.210;5.772;2024-02-26T00:17:35;10.10;;;6.50;;
56477;SDS011;42382;53.210;5.772;2024-02-26T00:20:02;9.68;;;5.97;;
56477;SDS011;42382;53.210;5.772;2024-02-26T00:22:29;11.20;;;6.60;;
56477;SDS011;42382;53.210;5.772;2024-02-26T00:24:56;10.50;;;6.43;;
56477;SDS011;42382;53.210;5.772;2024-02-26T00:27:21;9.93;;;5.72;;
56477;SDS011;42382;53.210;5.772;2024-02-26T00:29:47;7.75;;;5.15;;
56477;SDS011;42382;53.210;5.772;2024-02-26T00:32:13;10.15;;;6.18;;
56477;SDS011;42382;53.210;5.772;2024-02-26T00:34:39;8.20;;;5.72;;
56477;SDS011;42382;53.210;5.772;2024-02-26T00:37:04;9.73;;;5.25;;
56477;SDS011;42382;53.210;5.772;2024-02-26T00:39:30;8.43;;;5.15;;
56477;SDS011;42382;53.210;5.772;2024-02-26T00:41:55;10.60;;;5.32;;
56477;SDS011;42382;53.210;5.772;2024-02-26T00:44:22;8.75;;;5.63;;
56477;SDS011;42382;53.210;5.772;2024-02-26T00:46:47;9.52;;;5.97;;
56477;SDS011;42382;53.210;5.772;2024-02-26T00:49:13;7.63;;;5.22;;
56477;SDS011;42382;53.210;5.772;2024-02-26T00:51:38;7.53;;;5.18;;
56477;SDS011;42382;53.210;5.772;2024-02-26T00:54:04;7.90;;;5.55;;
56477;SDS011;42382;53.210;5.772;2024-02-26T00:56:29;12.65;;;5.00;;
56477;SDS011;42382;53.210;5.772;2024-02-26T00:58:55;6.97;;;5.07;;
56477;SDS011;42382;53.210;5.772;2024-02-26T01:01:23;7.93;;;4.60;;
56477;SDS011;42382;53.210;5.772;2024-02-26T01:03:49;7.15;;;4.32;;
56477;SDS011;42382;53.210;5.772;2024-02-26T01:06:14;12.73;;;5.03;;
56477;SDS011;42382;53.210;5.772;2024-02-26T01:08:40;7.75;;;4.40;;
56477;SDS011;42382;53.210;5.772;2024-02-26T01:11:06;7.65;;;3.85;;
56477;SDS011;42382;53.210;5.772;2024-02-26T01:13:35;5.10;;;3.90;;
56477;SDS011;42382;53.210;5.772;2024-02-26T01:16:00;7.70;;;4.10;;
56477;SDS011;42382;53.210;5.772;2024-02-26T01:18:26;4.80;;;3.30;;
56477;SDS011;42382;53.210;5.772;2024-02-26T01:20:52;8.52;;;3.65;;
56477;SDS011;42382;53.210;5.772;2024-02-26T01:23:19;5.57;;;3.30;;
56477;SDS011;42382;53.210;5.772;2024-02-26T01:25:45;6.68;;;3.30;;
56477;SDS011;42382;53.210;5.772;2024-02-26T01:28:11;8.25;;;3.60;;
56477;SDS011;42382;53.210;5.772;2024-02-26T01:30:36;8.73;;;3.80;;
56477;SDS011;42382;53.210;5.772;2024-02-26T01:33:02;10.15;;;4.10;;
56477;SDS011;42382;53.210;5.772;2024-02-26T01:35:30;5.63;;;3.80;;
56477;SDS011;42382;53.210;5.772;2024-02-26T01:37:56;6.88;;;3.35;;
56477;SDS011;42382;53.210;5.772;2024-02-26T01:40:23;4.60;;;3.63;;
56477;SDS011;42382;53.210;5.772;2024-02-26T01:42:52;5.75;;;4.05;;
56477;SDS011;42382;53.210;5.772;2024-02-26T01:45:18;7.07;;;4.13;;
56477;SDS011;42382;53.210;5.772;2024-02-26T01:47:50;5.88;;;4.10;;
56477;SDS011;42382;53.210;5.772;2024-02-26T01:50:17;6.30;;;3.63;;
56477;SDS011;42382;53.210;5.772;2024-02-26T01:52:44;5.20;;;3.72;;
56477;SDS011;42382;53.210;5.772;2024-02-26T01:55:12;4.97;;;3.42;;
56477;SDS011;42382;53.210;5.772;2024-02-26T01:57:39;5.45;;;3.58;;
56477;SDS011;42382;53.210;5.772;2024-02-26T02:00:07;4.13;;;3.20;;
56477;SDS011;42382;53.210;5.772;2024-02-26T02:02:33;5.25;;;2.72;;
56477;SDS011;42382;53.210;5.772;2024-02-26T02:04:59;3.33;;;3.03;;
56477;SDS011;42382;53.210;5.772;2024-02-26T02:07:25;4.90;;;2.78;;
56477;SDS011;42382;53.210;5.772;2024-02-26T02:09:51;4.43;;;2.55;;
56477;SDS011;42382;53.210;5.772;2024-02-26T02:12:18;4.90;;;2.78;;
56477;SDS011;42382;53.210;5.772;2024-02-26T02:14:44;4.63;;;2.30;;
56477;SDS011;42382;53.210;5.772;2024-02-26T02:17:10;6.32;;;2.47;;
56477;SDS011;42382;53.210;5.772;2024-02-26T02:19:35;3.22;;;2.47;;
56477;SDS011;42382;53.210;5.772;2024-02-26T02:22:04;5.55;;;1.90;;
56477;SDS011;42382;53.210;5.772;2024-02-26T02:24:32;4.43;;;2.03;;
56477;SDS011;42382;53.210;5.772;2024-02-26T02:26:58;2.95;;;1.90;;
56477;SDS011;42382;53.210;5.772;2024-02-26T02:29:24;3.30;;;1.80;;
56477;SDS011;42382;53.210;5.772;2024-02-26T02:31:50;5.75;;;2.00;;
56477;SDS011;42382;53.210;5.772;2024-02-26T02:34:15;3.85;;;1.45;;
56477;SDS011;42382;53.210;5.772;2024-02-26T02:36:48;2.80;;;2.08;;
56477;SDS011;42382;53.210;5.772;2024-02-26T02:39:17;2.85;;;1.73;;
56477;SDS011;42382;53.210;5.772;2024-02-26T02:41:43;3.90;;;1.33;;
56477;SDS011;42382;53.210;5.772;2024-02-26T02:44:08;8.45;;;1.70;;
56477;SDS011;42382;53.210;5.772;2024-02-26T02:46:34;3.10;;;1.55;;
56477;SDS011;42382;53.210;5.772;2024-02-26T02:49:00;7.93;;;1.50;;
56477;SDS011;42382;53.210;5.772;2024-02-26T02:51:26;1.80;;;1.50;;
56477;SDS011;42382;53.210;5.772;2024-02-26T02:53:52;7.13;;;1.67;;
56477;SDS011;42382;53.210;5.772;2024-02-26T02:56:18;2.85;;;1.42;;
56477;SDS011;42382;53.210;5.772;2024-02-26T02:58:44;4.70;;;2.00;;
56477;SDS011;42382;53.210;5.772;2024-02-26T03:01:09;3.53;;;1.50;;
56477;SDS011;42382;53.210;5.772;2024-02-26T03:03:35;2.30;;;1.80;;
56477;SDS011;42382;53.210;5.772;2024-02-26T03:06:02;9.98;;;1.90;;
56477;SDS011;42382;53.210;5.772;2024-02-26T03:08:28;4.22;;;1.58;;
56477;SDS011;42382;53.210;5.772;2024-02-26T03:10:54;2.63;;;1.55;;
56477;SDS011;42382;53.210;5.772;2024-02-26T03:13:21;3.92;;;1.50;;
56477;SDS011;42382;53.210;5.772;2024-02-26T03:15:47;9.15;;;2.28;;
56477;SDS011;42382;53.210;5.772;2024-02-26T03:18:12;4.30;;;1.90;;
56477;SDS011;42382;53.210;5.772;2024-02-26T03:20:38;4.45;;;1.98;;
56477;SDS011;42382;53.210;5.772;2024-02-26T03:23:04;2.72;;;1.92;;
56477;SDS011;42382;53.210;5.772;2024-02-26T03:25:29;3.80;;;2.35;;
56477;SDS011;42382;53.210;5.772;2024-02-26T03:27:55;5.85;;;2.50;;
56477;SDS011;42382;53.210;5.772;2024-02-26T03:30:20;6.80;;;2.38;;
56477;SDS011;42382;53.210;5.772;2024-02-26T03:32:46;3.20;;;1.73;;
56477;SDS011;42382;53.210;5.772;2024-02-26T03:35:12;3.38;;;1.95;;
56477;SDS011;42382;53.210;5.772;2024-02-26T03:37:38;4.13;;;2.10;;
56477;SDS011;42382;53.210;5.772;2024-02-26T03:40:04;5.65;;;1.90;;
56477;SDS011;42382;53.210;5.772;2024-02-26T03:42:31;3.25;;;1.95;;
56477;SDS011;42382;53.210;5.772;2024-02-26T03:44:56;3.55;;;1.58;;
56477;SDS011;42382;53.210;5.772;2024-02-26T03:47:22;2.90;;;1.48;;
56477;SDS011;42382;53.210;5.772;2024-02-26T03:49:47;3.63;;;1.40;;
56477;SDS011;42382;53.210;5.772;2024-02-26T03:52:13;4.38;;;2.00;;
56477;SDS011;42382;53.210;5.772;2024-02-26T03:54:40;3.70;;;1.98;;
56477;SDS011;42382;53.210;5.772;2024-02-26T03:57:05;5.05;;;2.17;;
56477;SDS011;42382;53.210;5.772;2024-02-26T03:59:31;4.65;;;2.30;;
56477;SDS011;42382;53.210;5.772;2024-02-26T04:01:56;3.20;;;2.22;;
56477;SDS011;42382;53.210;5.772;2024-02-26T04:04:22;5.00;;;2.35;;
56477;SDS011;42382;53.210;5.772;2024-02-26T04:06:47;5.18;;;2.38;;
56477;SDS011;42382;53.210;5.772;2024-02-26T04:09:13;5.28;;;2.85;;
56477;SDS011;42382;53.210;5.772;2024-02-26T04:11:39;4.43;;;3.03;;
56477;SDS011;42382;53.210;5.772;2024-02-26T04:14:05;6.07;;;2.40;;
56477;SDS011;42382;53.210;5.772;2024-02-26T04:16:33;4.32;;;2.65;;
56477;SDS011;42382;53.210;5.772;2024-02-26T04:19:02;10.00;;;3.03;;
56477;SDS011;42382;53.210;5.772;2024-02-26T04:21:27;6.80;;;2.92;;
56477;SDS011;42382;53.210;5.772;2024-02-26T04:23:53;7.40;;;3.10;;
56477;SDS011;42382;53.210;5.772;2024-02-26T04:26:20;6.38;;;3.15;;
56477;SDS011;42382;53.210;5.772;2024-02-26T04:28:46;5.03;;;3.50;;
56477;SDS011;42382;53.210;5.772;2024-02-26T04:31:12;8.30;;;4.00;;
56477;SDS011;42382;53.210;5.772;2024-02-26T04:33:38;7.95;;;4.38;;
56477;SDS011;42382;53.210;5.772;2024-02-26T04:36:03;5.47;;;4.10;;
56477;SDS011;42382;53.210;5.772;2024-02-26T04:38:29;5.50;;;3.22;;
56477;SDS011;42382;53.210;5.772;2024-02-26T04:40:55;5.78;;;4.03;;
56477;SDS011;42382;53.210;5.772;2024-02-26T04:43:20;6.63;;;3.53;;
56477;SDS011;42382;53.210;5.772;2024-02-26T04:45:46;8.93;;;4.30;;
56477;SDS011;42382;53.210;5.772;2024-02-26T04:48:17;5.47;;;3.20;;
56477;SDS011;42382;53.210;5.772;2024-02-26T04:50:43;7.78;;;3.42;;
56477;SDS011;42382;53.210;5.772;2024-02-26T04:53:08;6.80;;;3.90;;
56477;SDS011;42382;53.210;5.772;2024-02-26T04:55:34;8.77;;;3.45;;
56477;SDS011;42382;53.210;5.772;2024-02-26T04:58:00;6.03;;;3.15;;
56477;SDS011;42382;53.210;5.772;2024-02-26T05:00:25;5.32;;;3.30;;
56477;SDS011;42382;53.210;5.772;2024-02-26T05:02:51;6.07;;;3.83;;
56477;SDS011;42382;53.210;5.772;2024-02-26T05:05:16;4.40;;;3.17;;
56477;SDS011;42382;53.210;5.772;2024-02-26T05:07:48;7.13;;;3.33;;
56477;SDS011;42382;53.210;5.772;2024-02-26T05:10:13;6.53;;;3.38;;
56477;SDS011;42382;53.210;5.772;2024-02-26T05:12:39;5.95;;;3.15;;
56477;SDS011;42382;53.210;5.772;2024-02-26T05:15:07;6.30;;;3.22;;
56477;SDS011;42382;53.210;5.772;2024-02-26T05:17:33;4.50;;;3.38;;
56477;SDS011;42382;53.210;5.772;2024-02-26T05:19:59;9.07;;;3.40;;
56477;SDS011;42382;53.210;5.772;2024-02-26T05:22:25;4.28;;;2.85;;
56477;SDS011;42382;53.210;5.772;2024-02-26T05:24:50;2.85;;;2.53;;
56477;SDS011;42382;53.210;5.772;2024-02-26T05:27:16;3.65;;;2.47;;
56477;SDS011;42382;53.210;5.772;2024-02-26T05:29:42;4.03;;;2.05;;
56477;SDS011;42382;53.210;5.772;2024-02-26T05:32:08;3.75;;;2.28;;
56477;SDS011;42382;53.210;5.772;2024-02-26T05:34:33;5.10;;;2.05;;
56477;SDS011;42382;53.210;5.772;2024-02-26T05:36:59;5.07;;;1.73;;
56477;SDS011;42382;53.210;5.772;2024-02-26T05:39:25;3.92;;;1.60;;
56477;SDS011;42382;53.210;5.772;2024-02-26T05:41:50;3.42;;;1.55;;
56477;SDS011;42382;53.210;5.772;2024-02-26T05:44:16;4.53;;;1.45;;
56477;SDS011;42382;53.210;5.772;2024-02-26T05:46:41;3.38;;;1.05;;
56477;SDS011;42382;53.210;5.772;2024-02-26T05:49:07;2.20;;;1.17;;
56477;SDS011;42382;53.210;5.772;2024-02-26T05:51:33;3.22;;;1.42;;
56477;SDS011;42382;53.210;5.772;2024-02-26T05:53:58;3.30;;;1.42;;
56477;SDS011;42382;53.210;5.772;2024-02-26T05:56:24;2.30;;;1.48;;
56477;SDS011;42382;53.210;5.772;2024-02-26T05:58:50;3.35;;;1.10;;
56477;SDS011;42382;53.210;5.772;2024-02-26T06:01:16;2.38;;;1.35;;
56477;SDS011;42382;53.210;5.772;2024-02-26T06:03:43;4.85;;;1.52;;
56477;SDS011;42382;53.210;5.772;2024-02-26T06:06:10;3.38;;;1.58;;
56477;SDS011;42382;53.210;5.772;2024-02-26T06:08:36;6.18;;;1.50;;
56477;SDS011;42382;53.210;5.772;2024-02-26T06:11:05;2.00;;;1.27;;
56477;SDS011;42382;53.210;5.772;2024-02-26T06:13:32;7.15;;;1.45;;
56477;SDS011;42382;53.210;5.772;2024-02-26T06:15:57;2.25;;;1.25;;
56477;SDS011;42382;53.210;5.772;2024-02-26T06:18:23;2.17;;;1.00;;
56477;SDS011;42382;53.210;5.772;2024-02-26T06:20:51;1.80;;;1.25;;
56477;SDS011;42382;53.210;5.772;2024-02-26T06:23:17;1.67;;;0.82;;
56477;SDS011;42382;53.210;5.772;2024-02-26T06:25:43;1.90;;;0.85;;
56477;SDS011;42382;53.210;5.772;2024-02-26T06:28:09;4.72;;;0.98;;
56477;SDS011;42382;53.210;5.772;2024-02-26T06:30:34;2.70;;;0.90;;
56477;SDS011;42382;53.210;5.772;2024-02-26T06:33:01;4.53;;;0.93;;
56477;SDS011;42382;53.210;5.772;2024-02-26T06:35:26;3.13;;;0.90;;
56477;SDS011;42382;53.210;5.772;2024-02-26T06:37:52;2.63;;;0.95;;
56477;SDS011;42382;53.210;5.772;2024-02-26T06:40:21;2.38;;;0.85;;
56477;SDS011;42382;53.210;5.772;2024-02-26T06:42:47;6.28;;;1.25;;
56477;SDS011;42382;53.210;5.772;2024-02-26T06:45:12;4.38;;;0.50;;
56477;SDS011;42382;53.210;5.772;2024-02-26T06:47:38;1.90;;;0.80;;
56477;SDS011;42382;53.210;5.772;2024-02-26T06:50:04;2.95;;;0.82;;
56477;SDS011;42382;53.210;5.772;2024-02-26T06:52:30;4.22;;;0.75;;
56477;SDS011;42382;53.210;5.772;2024-02-26T06:54:55;4.60;;;1.30;;
56477;SDS011;42382;53.210;5.772;2024-02-26T06:57:21;1.75;;;0.50;;
56477;SDS011;42382;53.210;5.772;2024-02-26T06:59:47;2.67;;;0.60;;
56477;SDS011;42382;53.210;5.772;2024-02-26T07:02:13;4.32;;;1.20;;
56477;SDS011;42382;53.210;5.772;2024-02-26T07:04:39;3.10;;;0.82;;
56477;SDS011;42382;53.210;5.772;2024-02-26T07:07:05;2.10;;;0.60;;
56477;SDS011;42382;53.210;5.772;2024-02-26T07:09:32;2.00;;;0.75;;
56477;SDS011;42382;53.210;5.772;2024-02-26T07:11:57;2.25;;;0.93;;
56477;SDS011;42382;53.210;5.772;2024-02-26T07:14:23;1.77;;;0.70;;
56477;SDS011;42382;53.210;5.772;2024-02-26T07:16:49;3.50;;;0.85;;
56477;SDS011;42382;53.210;5.772;2024-02-26T07:19:15;2.78;;;1.08;;
56477;SDS011;42382;53.210;5.772;2024-02-26T07:21:41;4.53;;;1.35;;
56477;SDS011;42382;53.210;5.772;2024-02-26T07:24:07;4.03;;;1.38;;
56477;SDS011;42382;53.210;5.772;2024-02-26T07:26:32;4.57;;;1.17;;
56477;SDS011;42382;53.210;5.772;2024-02-26T07:28:58;3.05;;;0.90;;
56477;SDS011;42382;53.210;5.772;2024-02-26T07:31:25;5.03;;;1.20;;
56477;SDS011;42382;53.210;5.772;2024-02-26T07:33:50;3.40;;;0.80;;
56477;SDS011;42382;53.210;5.772;2024-02-26T07:36:16;2.88;;;1.08;;
56477;SDS011;42382;53.210;5.772;2024-02-26T07:38:44;6.35;;;1.50;;
56477;SDS011;42382;53.210;5.772;2024-02-26T07:41:11;7.20;;;1.52;;
56477;SDS011;42382;53.210;5.772;2024-02-26T07:43:36;4.57;;;1.13;;
56477;SDS011;42382;53.210;5.772;2024-02-26T07:46:02;6.15;;;0.80;;
56477;SDS011;42382;53.210;5.772;2024-02-26T07:48:28;5.07;;;0.80;;
56477;SDS011;42382;53.210;5.772;2024-02-26T07:50:53;4.07;;;1.40;;
56477;SDS011;42382;53.210;5.772;2024-02-26T07:53:19;5.88;;;0.95;;
56477;SDS011;42382;53.210;5.772;2024-02-26T07:55:45;5.15;;;1.00;;
56477;SDS011;42382;53.210;5.772;2024-02-26T07:58:10;1.98;;;1.02;;
56477;SDS011;42382;53.210;5.772;2024-02-26T08:00:36;5.63;;;1.50;;
56477;SDS011;42382;53.210;5.772;2024-02-26T08:03:01;3.35;;;1.30;;
56477;SDS011;42382;53.210;5.772;2024-02-26T08:05:27;3.13;;;1.42;;
56477;SDS011;42382;53.210;5.772;2024-02-26T08:07:53;4.20;;;1.50;;
56477;SDS011;42382;53.210;5.772;2024-02-26T08:10:19;3.08;;;1.63;;
56477;SDS011;42382;53.210;5.772;2024-02-26T08:12:45;7.38;;;1.92;;
56477;SDS011;42382;53.210;5.772;2024-02-26T08:15:11;11.35;;;2.10;;
56477;SDS011;42382;53.210;5.772;2024-02-26T08:17:37;4.63;;;1.80;;
56477;SDS011;42382;53.210;5.772;2024-02-26T08:20:06;5.45;;;2.10;;
56477;SDS011;42382;53.210;5.772;2024-02-26T08:22:32;5.15;;;2.35;;
56477;SDS011;42382;53.210;5.772;2024-02-26T08:24:58;5.78;;;2.10;;
56477;SDS011;42382;53.210;5.772;2024-02-26T08:27:23;5.18;;;2.08;;
56477;SDS011;42382;53.210;5.772;2024-02-26T08:29:49;5.25;;;1.80;;
56477;SDS011;42382;53.210;5.772;2024-02-26T08:32:14;6.68;;;1.77;;
56477;SDS011;42382;53.210;5.772;2024-02-26T08:34:40;4.25;;;1.90;;
56477;SDS011;42382;53.210;5.772;2024-02-26T08:37:06;2.97;;;1.35;;
56477;SDS011;42382;53.210;5.772;2024-02-26T08:39:31;4.05;;;1.35;;
56477;SDS011;42382;53.210;5.772;2024-02-26T08:41:57;4.20;;;1.65;;
56477;SDS011;42382;53.210;5.772;2024-02-26T08:44:22;3.88;;;1.48;;
56477;SDS011;42382;53.210;5.772;2024-02-26T08:46:48;5.32;;;1.52;;
56477;SDS011;42382;53.210;5.772;2024-02-26T08:49:15;8.68;;;1.23;;
56477;SDS011;42382;53.210;5.772;2024-02-26T08:51:42;3.00;;;1.58;;
56477;SDS011;42382;53.210;5.772;2024-02-26T08:54:08;6.47;;;1.88;;
56477;SDS011;42382;53.210;5.772;2024-02-26T08:56:34;8.13;;;1.15;;
56477;SDS011;42382;53.210;5.772;2024-02-26T08:58:59;4.28;;;1.58;;
56477;SDS011;42382;53.210;5.772;2024-02-26T09:01:28;4.53;;;1.38;;
56477;SDS011;42382;53.210;5.772;2024-02-26T09:03:54;4.60;;;1.27;;
56477;SDS011;42382;53.210;5.772;2024-02-26T09:06:21;4.45;;;0.90;;
56477;SDS011;42382;53.210;5.772;2024-02-26T09:08:46;3.92;;;1.02;;
56477;SDS011;42382;53.210;5.772;2024-02-26T09:11:12;3.13;;;0.90;;
56477;SDS011;42382;53.210;5.772;2024-02-26T09:13:38;5.05;;;1.00;;
56477;SDS011;42382;53.210;5.772;2024-02-26T09:16:03;3.58;;;0.95;;
56477;SDS011;42382;53.210;5.772;2024-02-26T09:18:30;2.60;;;0.70;;
56477;SDS011;42382;53.210;5.772;2024-02-26T09:20:56;2.72;;;0.98;;
56477;SDS011;42382;53.210;5.772;2024-02-26T09:23:21;4.43;;;1.00;;
56477;SDS011;42382;53.210;5.772;2024-02-26T09:25:47;4.50;;;1.20;;
56477;SDS011;42382;53.210;5.772;2024-02-26T09:28:13;7.32;;;1.15;;
56477;SDS011;42382;53.210;5.772;2024-02-26T09:30:40;3.55;;;1.10;;
56477;SDS011;42382;53.210;5.772;2024-02-26T09:33:06;2.35;;;0.60;;
56477;SDS011;42382;53.210;5.772;2024-02-26T09:35:31;3.50;;;0.70;;
56477;SDS011;42382;53.210;5.772;2024-02-26T09:37:57;2.55;;;0.82;;
56477;SDS011;42382;53.210;5.772;2024-02-26T09:40:22;2.28;;;0.70;;
56477;SDS011;42382;53.210;5.772;2024-02-26T09:42:48;1.52;;;0.80;;
56477;SDS011;42382;53.210;5.772;2024-02-26T09:45:21;3.30;;;0.80;;
56477;SDS011;42382;53.210;5.772;2024-02-26T09:47:47;3.45;;;0.77;;
56477;SDS011;42382;53.210;5.772;2024-02-26T09:50:17;4.20;;;1.00;;
56477;SDS011;42382;53.210;5.772;2024-02-26T09:52:43;2.83;;;0.60;;
56477;SDS011;42382;53.210;5.772;2024-02-26T09:55:09;3.63;;;1.35;;
56477;SDS011;42382;53.210;5.772;2024-02-26T09:57:36;7.35;;;0.80;;
56477;SDS011;42382;53.210;5.772;2024-02-26T10:00:02;2.92;;;0.85;;
56477;SDS011;42382;53.210;5.772;2024-02-26T10:02:30;5.45;;;1.02;;
56477;SDS011;42382;53.210;5.772;2024-02-26T10:04:57;5.40;;;1.00;;
56477;SDS011;42382;53.210;5.772;2024-02-26T10:07:27;2.95;;;0.70;;
56477;SDS011;42382;53.210;5.772;2024-02-26T10:09:55;1.45;;;0.52;;
56477;SDS011;42382;53.210;5.772;2024-02-26T10:12:20;2.55;;;1.02;;
56477;SDS011;42382;53.210;5.772;2024-02-26T10:14:48;2.60;;;1.10;;
56477;SDS011;42382;53.210;5.772;2024-02-26T10:17:13;4.07;;;0.45;;
56477;SDS011;42382;53.210;5.772;2024-02-26T10:19:40;4.70;;;1.02;;
56477;SDS011;42382;53.210;5.772;2024-02-26T10:22:05;3.33;;;0.73;;
56477;SDS011;42382;53.210;5.772;2024-02-26T10:24:31;4.18;;;0.60;;
56477;SDS011;42382;53.210;5.772;2024-02-26T10:26:57;3.78;;;1.13;;
56477;SDS011;42382;53.210;5.772;2024-02-26T10:29:23;3.53;;;0.80;;
56477;SDS011;42382;53.210;5.772;2024-02-26T10:31:50;3.72;;;0.70;;
56477;SDS011;42382;53.210;5.772;2024-02-26T10:34:20;7.10;;;1.55;;
56477;SDS011;42382;53.210;5.772;2024-02-26T10:36:46;4.88;;;0.90;;
56477;SDS011;42382;53.210;5.772;2024-02-26T10:39:12;3.55;;;0.93;;
56477;SDS011;42382;53.210;5.772;2024-02-26T10:41:40;5.00;;;1.30;;
56477;SDS011;42382;53.210;5.772;2024-02-26T10:44:08;4.25;;;1.10;;
56477;SDS011;42382;53.210;5.772;2024-02-26T10:46:36;4.57;;;1.30;;
56477;SDS011;42382;53.210;5.772;2024-02-26T10:49:02;9.38;;;1.92;;
56477;SDS011;42382;53.210;5.772;2024-02-26T10:51:31;3.58;;;1.73;;
56477;SDS011;42382;53.210;5.772;2024-02-26T10:54:02;4.72;;;1.38;;
56477;SDS011;42382;53.210;5.772;2024-02-26T10:56:33;5.43;;;1.65;;
56477;SDS011;42382;53.210;5.772;2024-02-26T10:58:59;7.97;;;1.40;;
56477;SDS011;42382;53.210;5.772;2024-02-26T11:01:27;3.58;;;1.50;;
56477;SDS011;42382;53.210;5.772;2024-02-26T11:03:56;5.93;;;1.20;;
56477;SDS011;42382;53.210;5.772;2024-02-26T11:06:25;5.63;;;2.00;;
56477;SDS011;42382;53.210;5.772;2024-02-26T11:08:51;6.68;;;1.88;;
56477;SDS011;42382;53.210;5.772;2024-02-26T11:11:18;8.00;;;2.17;;
56477;SDS011;42382;53.210;5.772;2024-02-26T11:13:46;6.50;;;2.20;;
56477;SDS011;42382;53.210;5.772;2024-02-26T11:16:20;5.70;;;1.88;;
56477;SDS011;42382;53.210;5.772;2024-02-26T11:18:47;9.55;;;2.00;;
56477;SDS011;42382;53.210;5.772;2024-02-26T11:21:16;4.82;;;1.55;;
56477;SDS011;42382;53.210;5.772;2024-02-26T11:23:52;4.47;;;1.65;;
56477;SDS011;42382;53.210;5.772;2024-02-26T11:26:18;4.82;;;1.92;;
56477;SDS011;42382;53.210;5.772;2024-02-26T11:28:46;4.10;;;1.75;;
56477;SDS011;42382;53.210;5.772;2024-02-26T11:31:14;3.92;;;1.50;;
56477;SDS011;42382;53.210;5.772;2024-02-26T11:33:39;4.63;;;1.85;;
56477;SDS011;42382;53.210;5.772;2024-02-26T11:36:09;8.23;;;2.13;;
56477;SDS011;42382;53.210;5.772;2024-02-26T11:38:36;8.75;;;2.50;;
56477;SDS011;42382;53.210;5.772;2024-02-26T11:41:03;6.07;;;2.45;;
56477;SDS011;42382;53.210;5.772;2024-02-26T11:49:49;7.70;;;2.03;;
56477;SDS011;42382;53.210;5.772;2024-02-26T11:51:54;4.95;;;2.00;;
56477;SDS011;42382;53.210;5.772;2024-02-26T11:57:22;7.00;;;1.98;;
56477;SDS011;42382;53.210;5.772;2024-02-26T11:59:50;6.65;;;1.90;;
56477;SDS011;42382;53.210;5.772;2024-02-26T12:08:03;7.90;;;1.90;;
56477;SDS011;42382;53.210;5.772;2024-02-26T12:10:32;8.10;;;1.88;;
56477;SDS011;42382;53.210;5.772;2024-02-26T12:13:13;8.65;;;1.95;;
56477;SDS011;42382;53.210;5.772;2024-02-26T12:15:46;10.85;;;1.63;;
56477;SDS011;42382;53.210;5.772;2024-02-26T12:18:21;5.80;;;0.95;;
56477;SDS011;42382;53.210;5.772;2024-02-26T12:20:57;7.47;;;0.90;;
56477;SDS011;42382;53.210;5.772;2024-02-26T12:23:24;5.38;;;0.93;;
56477;SDS011;42382;53.210;5.772;2024-02-26T12:25:53;4.75;;;1.17;;
56477;SDS011;42382;53.210;5.772;2024-02-26T12:28:23;4.10;;;1.27;;
56477;SDS011;42382;53.210;5.772;2024-02-26T12:30:52;5.88;;;1.42;;
56477;SDS011;42382;53.210;5.772;2024-02-26T12:33:17;6.30;;;1.13;;
56477;SDS011;42382;53.210;5.772;2024-02-26T12:35:43;4.40;;;0.98;;
56477;SDS011;42382;53.210;5.772;2024-02-26T12:38:12;3.50;;;0.95;;
56477;SDS011;42382;53.210;5.772;2024-02-26T12:40:39;5.78;;;1.20;;
56477;SDS011;42382;53.210;5.772;2024-02-26T12:43:05;4.82;;;1.25;;
56477;SDS011;42382;53.210;5.772;2024-02-26T12:45:31;6.57;;;1.92;;
56477;SDS011;42382;53.210;5.772;2024-02-26T12:47:57;5.78;;;1.92;;
56477;SDS011;42382;53.210;5.772;2024-02-26T12:50:24;5.47;;;1.25;;
56477;SDS011;42382;53.210;5.772;2024-02-26T12:52:50;5.97;;;1.90;;
56477;SDS011;42382;53.210;5.772;2024-02-26T12:55:20;6.38;;;1.27;;
56477;SDS011;42382;53.210;5.772;2024-02-26T12:57:46;8.45;;;1.63;;
56477;SDS011;42382;53.210;5.772;2024-02-26T13:00:15;9.43;;;1.58;;
56477;SDS011;42382;53.210;5.772;2024-02-26T13:02:43;6.50;;;1.50;;
56477;SDS011;42382;53.210;5.772;2024-02-26T13:05:10;7.57;;;1.88;;
56477;SDS011;42382;53.210;5.772;2024-02-26T13:07:41;8.93;;;2.58;;
56477;SDS011;42382;53.210;5.772;2024-02-26T13:10:08;7.50;;;1.80;;
56477;SDS011;42382;53.210;5.772;2024-02-26T13:12:36;5.13;;;1.35;;
56477;SDS011;42382;53.210;5.772;2024-02-26T13:15:06;10.00;;;1.75;;
56477;SDS011;42382;53.210;5.772;2024-02-26T13:17:32;9.43;;;2.05;;
56477;SDS011;42382;53.210;5.772;2024-02-26T13:19:58;5.75;;;1.80;;
56477;SDS011;42382;53.210;5.772;2024-02-26T13:22:23;18.13;;;6.65;;
56477;SDS011;42382;53.210;5.772;2024-02-26T13:24:55;10.50;;;3.60;;
56477;SDS011;42382;53.210;5.772;2024-02-26T13:27:25;17.00;;;4.55;;
56477;SDS011;42382;53.210;5.772;2024-02-26T13:32:36;15.95;;;5.88;;
56477;SDS011;42382;53.210;5.772;2024-02-26T13:35:10;16.00;;;4.22;;
56477;SDS011;42382;53.210;5.772;2024-02-26T13:37:37;10.07;;;2.40;;
56477;SDS011;42382;53.210;5.772;2024-02-26T13:40:07;7.88;;;3.42;;
56477;SDS011;42382;53.210;5.772;2024-02-26T13:42:34;8.77;;;2.60;;
56477;SDS011;42382;53.210;5.772;2024-02-26T13:45:00;9.25;;;1.80;;
56477;SDS011;42382;53.210;5.772;2024-02-26T13:47:26;6.65;;;1.33;;
56477;SDS011;42382;53.210;5.772;2024-02-26T13:49:52;7.70;;;1.67;;
56477;SDS011;42382;53.210;5.772;2024-02-26T13:52:17;6.95;;;1.30;;
56477;SDS011;42382;53.210;5.772;2024-02-26T13:54:45;7.07;;;1.35;;
56477;SDS011;42382;53.210;5.772;2024-02-26T13:57:11;10.15;;;1.92;;
56477;SDS011;42382;53.210;5.772;2024-02-26T13:59:36;5.22;;;1.50;;
56477;SDS011;42382;53.210;5.772;2024-02-26T14:02:02;7.18;;;1.35;;
56477;SDS011;42382;53.210;5.772;2024-02-26T14:04:29;4.05;;;1.05;;
56477;SDS011;42382;53.210;5.772;2024-02-26T14:06:54;5.78;;;0.90;;
56477;SDS011;42382;53.210;5.772;2024-02-26T14:09:20;4.13;;;0.68;;
56477;SDS011;42382;53.210;5.772;2024-02-26T14:11:45;5.85;;;0.80;;
56477;SDS011;42382;53.210;5.772;2024-02-26T14:14:11;3.00;;;0.68;;
56477;SDS011;42382;53.210;5.772;2024-02-26T14:16:37;7.13;;;0.55;;
56477;SDS011;42382;53.210;5.772;2024-02-26T14:19:02;9.68;;;0.70;;
56477;SDS011;42382;53.210;5.772;2024-02-26T14:21:28;6.03;;;1.38;;
56477;SDS011;42382;53.210;5.772;2024-02-26T14:23:55;3.33;;;0.82;;
56477;SDS011;42382;53.210;5.772;2024-02-26T14:26:29;4.32;;;0.60;;
56477;SDS011;42382;53.210;5.772;2024-02-26T14:28:55;3.17;;;0.40;;
56477;SDS011;42382;53.210;5.772;2024-02-26T14:31:21;1.88;;;0.30;;
56477;SDS011;42382;53.210;5.772;2024-02-26T14:33:46;1.35;;;0.47;;
56477;SDS011;42382;53.210;5.772;2024-02-26T14:36:13;2.47;;;0.60;;
56477;SDS011;42382;53.210;5.772;2024-02-26T14:39:10;1.67;;;0.38;;
56477;SDS011;42382;53.210;5.772;2024-02-26T14:41:38;2.88;;;0.22;;
56477;SDS011;42382;53.210;5.772;2024-02-26T14:44:04;2.78;;;0.30;;
56477;SDS011;42382;53.210;5.772;2024-02-26T14:46:30;1.42;;;0.30;;
56477;SDS011;42382;53.210;5.772;2024-02-26T14:48:55;1.10;;;0.30;;
56477;SDS011;42382;53.210;5.772;2024-02-26T14:51:24;7.82;;;0.60;;
56477;SDS011;42382;53.210;5.772;2024-02-26T14:53:49;3.53;;;0.65;;
56477;SDS011;42382;53.210;5.772;2024-02-26T14:56:15;2.47;;;0.45;;
56477;SDS011;42382;53.210;5.772;2024-02-26T14:58:41;3.47;;;0.70;;